Time;durP1;ratioP1;P1;durP2;ratioP2;P2;SDS_P1;SDS_P2;PMS_P1;PMS_P2;Temp;Humidity;BMP_temperature;BMP_pressure;BME280_temperature;BME280_humidity;BME280_pressure;Samples;Min_cycle;Max_cycle;Signal;HPM_P1;HPM_P2
2021/11/26 00:00:21;;;;;;;44.33;20.45;;;;;;;-0.63;80.44;96564.16;5007464;28;20076;-53
2021/11/26 00:02:47;;;;;;;42.45;19.52;;;;;;;-0.57;80.95;96552.69;5021825;28;20080;-51
2021/11/26 00:05:14;;;;;;;42.50;19.63;;;;;;;-0.60;79.66;96550.44;5015971;28;20037;-53
2021/11/26 00:07:41;;;;;;;42.28;19.88;;;;;;;-0.53;79.80;96541.47;5020801;28;20052;-49
2021/11/26 00:10:08;;;;;;;42.33;20.27;;;;;;;-0.47;79.24;96536.38;5026899;28;20046;-50
2021/11/26 00:12:34;;;;;;;45.83;19.33;;;;;;;-0.45;78.95;96521.84;5027231;28;20049;-53
2021/11/26 00:17:29;;;;;;;39.22;18.83;;;;;;;-0.61;79.27;96527.53;5007506;28;20556;-55
2021/11/26 00:19:56;;;;;;;42.85;19.50;;;;;;;-0.67;80.09;96519.34;5021054;28;20053;-53
2021/11/26 00:22:22;;;;;;;44.90;21.52;;;;;;;-0.78;80.77;96522.59;5019019;28;20037;-54
2021/11/26 00:24:49;;;;;;;43.08;20.17;;;;;;;-0.74;80.57;96505.22;5019385;28;20052;-55
2021/11/26 00:27:16;;;;;;;42.08;19.17;;;;;;;-0.63;79.79;96498.47;5026352;28;20528;-54
2021/11/26 00:29:43;;;;;;;37.05;18.88;;;;;;;-0.63;79.48;96498.47;5011981;28;20042;-53
2021/11/26 00:32:10;;;;;;;42.55;19.00;;;;;;;-0.52;79.50;96491.75;5015584;28;20517;-55
2021/11/26 00:34:36;;;;;;;42.70;20.20;;;;;;;-0.55;79.29;96482.34;5017222;28;20408;-51
2021/11/26 00:37:04;;;;;;;41.13;19.50;;;;;;;-0.58;79.32;96477.44;5026717;28;20520;-55
2021/11/26 00:39:30;;;;;;;41.22;19.10;;;;;;;-0.69;79.95;96478.03;5016923;28;20057;-54
2021/11/26 00:41:57;;;;;;;40.05;18.88;;;;;;;-0.59;79.87;96472.31;5026387;28;20053;-52
2021/11/26 00:44:23;;;;;;;42.72;20.52;;;;;;;-0.48;79.50;96478.88;5018442;28;20060;-50
2021/11/26 00:46:50;;;;;;;43.63;19.90;;;;;;;-0.57;80.18;96475.59;5026278;28;20504;-50
2021/11/26 00:49:16;;;;;;;40.65;19.25;;;;;;;-0.75;81.41;96482.31;5018118;28;20065;-55
2021/11/26 00:51:43;;;;;;;40.35;19.80;;;;;;;-0.63;79.99;96473.75;5026015;28;20045;-52
2021/11/26 00:54:10;;;;;;;44.42;20.83;;;;;;;-0.64;80.88;96483.56;5024385;28;20038;-48
2021/11/26 00:56:36;;;;;;;42.92;18.98;;;;;;;-0.63;80.64;96479.06;5026824;28;20041;-49
2021/11/26 00:59:03;;;;;;;41.22;19.83;;;;;;;-0.53;80.80;96479.47;5020215;28;20042;-54
2021/11/26 01:01:29;;;;;;;45.95;20.42;;;;;;;-0.50;79.28;96471.09;5022936;28;20050;-55
2021/11/26 01:03:56;;;;;;;40.97;20.85;;;;;;;-0.70;80.38;96473.75;5025502;28;20029;-52
2021/11/26 01:06:23;;;;;;;42.88;19.17;;;;;;;-0.75;80.12;96477.00;5011498;28;20041;-55
2021/11/26 01:08:49;;;;;;;44.38;20.58;;;;;;;-0.74;79.94;96473.31;5022247;28;20096;-53
2021/11/26 01:11:16;;;;;;;46.80;19.85;;;;;;;-0.67;80.89;96471.50;5011026;28;20169;-55
2021/11/26 01:13:43;;;;;;;45.10;20.95;;;;;;;-0.67;80.12;96468.84;5015443;28;20072;-55
2021/11/26 01:16:10;;;;;;;41.22;20.30;;;;;;;-0.75;80.85;96470.84;5014183;28;20060;-54
2021/11/26 01:18:36;;;;;;;44.17;21.38;;;;;;;-0.81;81.32;96460.00;5010271;28;20046;-55
2021/11/26 01:21:06;;;;;;;46.75;21.05;;;;;;;-0.86;81.48;96454.50;5019485;28;20076;-55
2021/11/26 01:23:35;;;;;;;44.90;20.67;;;;;;;-0.84;81.57;96457.78;5026024;28;20045;-55
2021/11/26 01:26:03;;;;;;;44.83;20.98;;;;;;;-0.90;81.34;96455.06;5026278;28;20041;-52
2021/11/26 01:28:31;;;;;;;47.00;20.58;;;;;;;-0.66;80.93;96467.00;5006781;28;20038;-55
2021/11/26 01:30:58;;;;;;;42.55;19.88;;;;;;;-0.54;79.98;96456.56;5007150;28;20072;-55
2021/11/26 01:33:25;;;;;;;41.45;19.83;;;;;;;-0.56;79.99;96461.25;5011016;28;20042;-54
2021/11/26 01:35:54;;;;;;;45.53;21.52;;;;;;;-0.63;81.03;96453.28;5025794;28;20049;-55
2021/11/26 01:38:22;;;;;;;42.28;19.90;;;;;;;-0.73;80.98;96445.72;5030172;28;20049;-55
2021/11/26 01:40:49;;;;;;;43.03;20.73;;;;;;;-0.86;81.77;96448.34;5029392;28;20049;-55
2021/11/26 01:43:20;;;;;;;45.22;19.95;;;;;;;-0.66;80.57;96449.19;5030237;28;20119;-55
2021/11/26 01:45:50;;;;;;;45.83;20.52;;;;;;;-0.72;81.22;96444.69;5011878;28;20052;-52
2021/11/26 01:48:19;;;;;;;46.90;21.00;;;;;;;-0.71;81.87;96440.19;5010175;28;20057;-49
2021/11/26 01:50:47;;;;;;;43.35;20.45;;;;;;;-0.49;80.86;96443.47;5027699;28;20046;-48
2021/11/26 01:53:13;;;;;;;45.15;20.23;;;;;;;-0.64;80.28;96438.34;5029387;28;20726;-48
2021/11/26 01:55:40;;;;;;;38.22;18.55;;;;;;;-0.80;81.51;96431.59;5012699;28;20046;-48
2021/11/26 01:58:10;;;;;;;50.10;21.73;;;;;;;-0.70;81.05;96429.34;5009981;28;20523;-55
2021/11/26 02:00:40;;;;;;;49.65;21.73;;;;;;;-0.56;80.64;96432.84;5025445;28;20049;-55
2021/11/26 02:03:08;;;;;;;48.00;20.83;;;;;;;-0.58;80.10;96432.25;5029691;28;20045;-55
2021/11/26 02:05:35;;;;;;;41.10;22.02;;;;;;;-0.70;81.49;96424.03;5026206;28;20288;-55
2021/11/26 02:08:02;;;;;;;47.25;20.25;;;;;;;-0.56;80.59;96424.03;5020868;28;20041;-55
2021/11/26 02:10:29;;;;;;;45.80;20.85;;;;;;;-0.34;80.42;96421.19;5009783;28;20995;-54
2021/11/26 02:12:56;;;;;;;39.97;19.60;;;;;;;-0.65;80.89;96418.13;5009270;28;20505;-55
2021/11/26 02:15:25;;;;;;;44.08;20.88;;;;;;;-0.69;81.09;96417.72;5020920;28;20037;-52
2021/11/26 02:17:53;;;;;;;38.75;18.95;;;;;;;-0.74;81.16;96403.41;5028577;28;20088;-53
2021/11/26 02:20:23;;;;;;;49.30;20.67;;;;;;;-0.77;81.44;96406.44;5027997;28;20111;-55
2021/11/26 02:22:51;;;;;;;45.40;20.50;;;;;;;-0.38;80.39;96402.16;5029674;28;20092;-55
2021/11/26 02:25:18;;;;;;;41.65;19.52;;;;;;;-0.71;81.25;96398.47;5026518;28;20686;-54
2021/11/26 02:27:46;;;;;;;43.67;19.70;;;;;;;-0.54;80.54;96395.41;5028825;28;20103;-55
2021/11/26 02:30:16;;;;;;;43.75;19.50;;;;;;;-0.54;80.66;96396.25;5012368;28;20056;-55
2021/11/26 02:32:46;;;;;;;40.92;18.90;;;;;;;-0.42;80.01;96398.25;5019252;28;20341;-55
2021/11/26 02:35:13;;;;;;;40.65;19.67;;;;;;;-0.54;80.15;96395.41;5011446;28;20046;-55
2021/11/26 02:37:41;;;;;;;37.47;16.70;;;;;;;-0.46;79.69;96395.22;5027348;28;20061;-55
2021/11/26 02:40:09;;;;;;;46.72;20.88;;;;;;;-0.37;79.86;96393.13;5019574;28;20222;-55
2021/11/26 02:42:37;;;;;;;37.35;17.83;;;;;;;-0.56;80.54;96390.28;5028655;28;20045;-54
2021/11/26 02:45:07;;;;;;;34.42;16.75;;;;;;;-0.56;79.70;96392.13;5028493;28;20056;-54
2021/11/26 02:47:34;;;;;;;40.33;18.95;;;;;;;-0.44;79.68;96392.34;5028555;28;20056;-55
2021/11/26 02:50:04;;;;;;;37.10;17.30;;;;;;;-0.44;79.97;96389.69;5027263;28;20053;-51
2021/11/26 02:52:31;;;;;;;41.63;18.05;;;;;;;-0.55;79.97;96385.81;5028507;28;20049;-52
2021/11/26 02:54:58;;;;;;;41.58;19.60;;;;;;;-0.67;80.55;96381.09;5011260;28;20045;-55
2021/11/26 02:57:24;;;;;;;36.22;18.73;;;;;;;-0.54;79.76;96376.81;5008814;28;20493;-50
2021/11/26 02:59:51;;;;;;;38.95;17.42;;;;;;;-0.46;79.82;96368.59;5024818;28;20057;-51
2021/11/26 03:02:18;;;;;;;38.97;17.80;;;;;;;-0.47;80.41;96366.16;5027799;28;20504;-50
2021/11/26 03:04:45;;;;;;;36.25;17.83;;;;;;;-0.66;80.01;96360.66;5027494;28;20049;-49
2021/11/26 03:07:11;;;;;;;41.97;20.30;;;;;;;-0.78;80.86;96365.75;5020647;28;20030;-48
2021/11/26 03:09:39;;;;;;;35.58;16.50;;;;;;;-0.67;81.24;96369.63;5021224;28;20121;-51
2021/11/26 03:12:07;;;;;;;40.40;18.95;;;;;;;-0.75;80.26;96364.53;5026598;28;20095;-55
2021/11/26 03:14:35;;;;;;;41.70;18.38;;;;;;;-0.87;81.32;96366.97;5023206;28;20038;-55
2021/11/26 03:17:02;;;;;;;37.85;19.17;;;;;;;-0.85;81.37;96360.44;5010015;28;20041;-54
2021/11/26 03:19:29;;;;;;;36.85;16.70;;;;;;;-0.79;81.61;96354.31;5020210;28;20095;-54
2021/11/26 03:21:56;;;;;;;40.53;19.02;;;;;;;-0.88;81.38;96349.41;5028479;28;20041;-53
2021/11/26 03:24:22;;;;;;;39.50;18.33;;;;;;;-0.96;81.26;96347.78;5015624;28;20054;-53
2021/11/26 03:26:49;;;;;;;36.80;18.38;;;;;;;-0.87;81.70;96348.38;5008435;28;20037;-53
2021/11/26 03:29:16;;;;;;;36.80;17.65;;;;;;;-0.80;80.89;96342.03;5019339;28;20041;-53
2021/11/26 03:31:43;;;;;;;44.88;19.17;;;;;;;-0.85;81.00;96335.72;5021813;28;20034;-54
2021/11/26 03:34:10;;;;;;;37.63;17.20;;;;;;;-0.64;80.11;96332.00;5026496;28;20103;-55
2021/11/26 03:36:36;;;;;;;42.10;18.10;;;;;;;-0.45;79.57;96330.34;5024166;28;20100;-54
2021/11/26 03:39:04;;;;;;;34.63;15.38;;;;;;;-0.42;79.39;96321.97;5017180;28;20037;-51
2021/11/26 03:41:30;;;;;;;35.80;18.02;;;;;;;-0.35;79.80;96311.31;5027713;28;20076;-55
2021/11/26 03:43:57;;;;;;;38.20;17.83;;;;;;;-0.38;79.42;96311.72;5019818;28;20046;-54
2021/11/26 03:46:24;;;;;;;38.58;18.23;;;;;;;-0.24;78.16;96306.34;5024812;28;20083;-55
2021/11/26 03:48:50;;;;;;;38.65;17.88;;;;;;;-0.34;79.75;96306.81;5025453;28;20079;-54
2021/11/26 03:51:17;;;;;;;40.22;18.20;;;;;;;-0.21;78.54;96300.63;5026232;28;20057;-52
2021/11/26 03:53:43;;;;;;;34.67;16.55;;;;;;;-0.58;79.79;96295.81;5020569;28;20095;-54
2021/11/26 03:56:10;;;;;;;41.65;18.77;;;;;;;-0.71;80.93;96292.13;5015070;28;20409;-54
2021/11/26 03:58:36;;;;;;;43.53;17.42;;;;;;;-0.79;81.58;96287.03;5021537;28;20100;-54
2021/11/26 04:01:03;;;;;;;39.15;18.20;;;;;;;-0.74;81.72;96286.44;5007460;28;20049;-53
2021/11/26 04:03:30;;;;;;;38.42;15.73;;;;;;;-0.82;81.49;96288.25;5022118;28;20042;-49
2021/11/26 04:05:56;;;;;;;38.28;17.58;;;;;;;-0.67;81.24;96273.91;5007541;28;20053;-52
2021/11/26 04:08:23;;;;;;;38.10;17.63;;;;;;;-0.49;79.83;96278.59;5018148;28;20041;-50
2021/11/26 04:10:49;;;;;;;38.70;17.80;;;;;;;-0.48;81.53;96263.47;5017197;28;20049;-50
2021/11/26 04:13:18;;;;;;;43.08;19.25;;;;;;;-0.74;81.80;96263.31;5009157;28;20405;-51
2021/11/26 04:15:45;;;;;;;40.90;19.23;;;;;;;-0.87;81.90;96261.50;5026622;28;20535;-50
2021/11/26 04:18:11;;;;;;;45.55;20.02;;;;;;;-0.89;81.84;96273.34;5025713;28;20099;-48
2021/11/26 04:20:42;;;;;;;37.90;17.50;;;;;;;-0.71;80.92;96270.88;5026957;28;20463;-54
2021/11/26 04:23:10;;;;;;;37.23;18.03;;;;;;;-0.56;80.41;96269.81;5025785;28;20057;-49
2021/11/26 04:25:36;;;;;;;43.55;19.45;;;;;;;-0.48;80.06;96266.94;5007374;28;20054;-50
2021/11/26 04:28:04;;;;;;;35.90;17.23;;;;;;;-0.59;80.93;96262.28;5021344;28;20050;-50
2021/11/26 04:30:31;;;;;;;39.78;17.73;;;;;;;-0.64;81.02;96259.41;5011015;28;20045;-55
2021/11/26 04:32:58;;;;;;;37.92;16.92;;;;;;;-0.50;80.27;96260.19;5021644;28;20049;-54
2021/11/26 04:35:25;;;;;;;38.40;19.00;;;;;;;-0.48;80.29;96253.63;5025376;28;20119;-53
2021/11/26 04:37:52;;;;;;;35.75;17.73;;;;;;;-0.59;80.74;96247.13;5013558;28;20044;-55
2021/11/26 04:40:19;;;;;;;40.65;18.20;;;;;;;-0.54;80.45;96252.66;5016551;28;20451;-55
2021/11/26 04:42:46;;;;;;;37.85;17.67;;;;;;;-0.45;80.78;96242.59;5026226;28;20045;-52
2021/11/26 04:45:14;;;;;;;39.53;16.98;;;;;;;-0.47;80.80;96234.00;5025829;28;20049;-54
2021/11/26 04:47:41;;;;;;;43.30;18.60;;;;;;;-0.35;81.20;96242.16;5014757;28;20042;-56
2021/11/26 04:50:10;;;;;;;36.92;17.48;;;;;;;-0.28;79.37;96239.47;5014924;28;20397;-54
2021/11/26 04:52:36;;;;;;;35.45;16.92;;;;;;;-0.20;79.68;96231.25;5026628;28;20091;-55
2021/11/26 04:55:05;;;;;;;36.78;15.23;;;;;;;-0.15;79.00;96230.59;5018631;28;20049;-55
2021/11/26 04:57:31;;;;;;;33.58;14.23;;;;;;;-0.13;78.67;96228.56;5014098;28;20107;-54
2021/11/26 04:59:58;;;;;;;34.40;15.63;;;;;;;-0.08;78.82;96233.25;5024048;28;20048;-55
2021/11/26 05:02:26;;;;;;;41.47;17.40;;;;;;;-0.25;80.25;96235.56;5019846;28;20052;-55
2021/11/26 05:04:53;;;;;;;37.38;17.58;;;;;;;-0.47;80.97;96233.19;5021049;28;20046;-55
2021/11/26 05:07:21;;;;;;;34.90;15.85;;;;;;;-0.38;80.74;96228.47;5021629;28;20088;-50
2021/11/26 05:09:48;;;;;;;34.83;17.20;;;;;;;-0.47;80.58;96231.34;5011155;28;20104;-52
2021/11/26 05:12:15;;;;;;;36.92;15.73;;;;;;;-0.48;81.02;96226.22;5018621;28;20037;-49
2021/11/26 05:14:41;;;;;;;31.88;14.73;;;;;;;-0.47;80.79;96220.72;5026052;28;20191;-52
2021/11/26 05:17:07;;;;;;;38.88;16.05;;;;;;;-0.34;80.38;96232.34;5024006;28;20045;-51
2021/11/26 05:19:35;;;;;;;32.53;15.30;;;;;;;-0.23;79.55;96226.34;5025580;28;20049;-49
2021/11/26 05:22:02;;;;;;;31.85;13.82;;;;;;;-0.26;79.62;96221.44;5008080;28;20061;-50
2021/11/26 05:24:29;;;;;;;33.70;15.75;;;;;;;-0.32;79.37;96220.44;5006290;28;20062;-51
2021/11/26 05:26:55;;;;;;;26.98;13.50;;;;;;;-0.31;79.58;96221.25;5015109;28;20100;-54
2021/11/26 05:29:22;;;;;;;33.42;14.93;;;;;;;-0.20;79.23;96223.25;5009010;28;20515;-51
2021/11/26 05:31:48;;;;;;;31.10;15.73;;;;;;;-0.07;78.56;96214.38;5024121;28;20455;-51
2021/11/26 05:34:15;;;;;;;25.92;13.30;;;;;;;-0.05;79.34;96214.16;5025001;28;20570;-51
2021/11/26 05:36:43;;;;;;;37.78;16.38;;;;;;;-0.12;79.16;96214.22;5021104;28;20033;-53
2021/11/26 05:39:10;;;;;;;32.42;15.00;;;;;;;-0.02;78.80;96217.25;5018302;28;20034;-56
2021/11/26 05:41:36;;;;;;;34.45;13.90;;;;;;;0.00;78.72;96206.38;5015924;28;20042;-56
2021/11/26 05:44:03;;;;;;;32.22;13.85;;;;;;;0.08;79.02;96206.13;5024325;28;20475;-56
2021/11/26 05:46:30;;;;;;;29.13;14.18;;;;;;;0.12;78.32;96191.34;5011263;28;20048;-56
2021/11/26 05:48:56;;;;;;;30.60;15.07;;;;;;;0.21;78.24;96196.41;5019561;28;20053;-55
2021/11/26 05:51:23;;;;;;;29.23;13.02;;;;;;;0.27;77.92;96195.56;5013734;28;20061;-52
2021/11/26 05:53:50;;;;;;;26.20;13.98;;;;;;;0.19;78.40;96190.50;5019533;28;20041;-56
2021/11/26 05:56:16;;;;;;;28.60;14.05;;;;;;;0.14;78.54;96191.13;5022341;28;20052;-54
2021/11/26 05:58:43;;;;;;;29.95;14.32;;;;;;;-0.03;79.65;96190.84;5017662;28;20052;-56
2021/11/26 06:01:09;;;;;;;27.75;14.25;;;;;;;0.11;79.90;96186.25;5019871;28;20053;-56
2021/11/26 06:03:37;;;;;;;31.63;15.35;;;;;;;0.06;79.12;96184.22;5011375;28;20041;-56
2021/11/26 06:06:03;;;;;;;32.67;14.90;;;;;;;-0.01;79.38;96189.59;5017571;28;20509;-55
2021/11/26 06:08:30;;;;;;;30.83;13.48;;;;;;;-0.01;79.58;96176.28;5020440;28;20041;-56
2021/11/26 06:10:57;;;;;;;28.13;14.25;;;;;;;-0.17;80.03;96184.75;5020953;28;20049;-52
2021/11/26 06:13:23;;;;;;;31.63;14.77;;;;;;;-0.32;80.99;96174.41;5023127;28;20049;-53
2021/11/26 06:15:50;;;;;;;34.75;15.30;;;;;;;-0.45;81.72;96178.75;5010349;28;20134;-52
2021/11/26 06:18:16;;;;;;;33.30;16.15;;;;;;;-0.45;81.67;96176.09;5016631;28;20410;-53
2021/11/26 06:20:43;;;;;;;35.75;16.00;;;;;;;-0.53;81.81;96171.84;5022294;28;20041;-53
2021/11/26 06:23:10;;;;;;;37.45;17.30;;;;;;;-0.54;82.50;96164.91;5025125;28;20103;-52
2021/11/26 06:25:37;;;;;;;38.63;15.80;;;;;;;-0.44;82.17;96164.41;5025732;28;20049;-51
2021/11/26 06:28:04;;;;;;;37.58;15.32;;;;;;;-0.50;82.38;96159.97;5025293;28;20037;-55
2021/11/26 06:30:31;;;;;;;36.50;16.00;;;;;;;-0.53;82.48;96157.72;5028863;28;20083;-55
2021/11/26 06:32:58;;;;;;;36.38;15.60;;;;;;;-0.49;82.49;96166.91;5028315;28;20053;-56
2021/11/26 06:35:25;;;;;;;32.53;16.13;;;;;;;-0.42;82.52;96167.69;5028361;28;20045;-55
2021/11/26 06:37:54;;;;;;;37.35;16.70;;;;;;;-0.43;82.06;96163.41;5028163;28;20273;-56
2021/11/26 06:40:21;;;;;;;32.92;16.30;;;;;;;-0.49;83.01;96163.41;5028927;28;20053;-56
2021/11/26 06:42:48;;;;;;;30.88;14.55;;;;;;;-0.58;82.98;96152.22;5029014;28;20505;-55
2021/11/26 06:45:15;;;;;;;37.03;16.30;;;;;;;-0.58;83.13;96146.91;5028489;28;20041;-54
2021/11/26 06:47:42;;;;;;;35.78;16.50;;;;;;;-0.57;83.35;96145.88;5028482;28;20729;-55
2021/11/26 06:50:10;;;;;;;40.05;16.30;;;;;;;-0.49;83.03;96150.13;5028703;28;20052;-56
2021/11/26 06:52:37;;;;;;;32.33;16.27;;;;;;;-0.34;82.15;96147.22;5027793;28;20072;-56
2021/11/26 06:55:07;;;;;;;36.03;17.48;;;;;;;-0.23;80.99;96149.19;5028489;28;20636;-56
2021/11/26 06:57:37;;;;;;;30.45;14.73;;;;;;;-0.16;82.10;96149.13;5028379;28;20452;-54
2021/11/26 07:00:06;;;;;;;32.20;14.73;;;;;;;-0.09;80.61;96143.78;5027905;28;20048;-54
2021/11/26 07:02:33;;;;;;;31.83;14.18;;;;;;;-0.11;81.15;96146.66;5028323;28;20486;-55
2021/11/26 07:05:00;;;;;;;34.92;16.20;;;;;;;-0.20;81.55;96146.09;5028006;28;20053;-56
2021/11/26 07:07:26;;;;;;;34.67;16.05;;;;;;;-0.22;83.03;96142.81;5026648;28;20038;-54
2021/11/26 07:09:53;;;;;;;33.08;15.65;;;;;;;-0.02;81.58;96139.25;5020085;28;20045;-49
2021/11/26 07:12:19;;;;;;;31.67;15.93;;;;;;;0.03;81.78;96133.28;5027638;28;20607;-49
2021/11/26 07:14:46;;;;;;;34.97;17.05;;;;;;;-0.01;80.86;96136.38;5028223;28;20042;-52
2021/11/26 07:17:14;;;;;;;37.20;16.90;;;;;;;-0.03;81.05;96133.09;5027551;28;20041;-53
2021/11/26 07:19:46;;;;;;;37.75;18.17;;;;;;;-0.11;81.46;96127.22;5027625;28;20049;-53
2021/11/26 07:22:13;;;;;;;43.45;21.98;;;;;;;-0.07;81.62;96126.56;5026845;28;20629;-56
2021/11/26 07:24:40;;;;;;;36.30;16.02;;;;;;;-0.07;81.52;96123.09;5025851;28;20485;-54
2021/11/26 07:27:07;;;;;;;36.78;16.45;;;;;;;0.18;81.17;96123.13;5026148;28;20042;-55
2021/11/26 07:29:33;;;;;;;31.65;15.63;;;;;;;0.22;79.82;96124.31;5025988;28;20053;-56
2021/11/26 07:32:00;;;;;;;33.10;15.52;;;;;;;0.27;80.06;96122.84;5024228;28;20493;-54
2021/11/26 07:34:27;;;;;;;32.40;15.77;;;;;;;0.23;80.59;96125.94;5026026;28;20049;-54
2021/11/26 07:36:55;;;;;;;33.63;16.55;;;;;;;0.28;81.03;96119.97;5023982;28;20049;-56
2021/11/26 07:39:23;;;;;;;48.67;21.65;;;;;;;0.34;81.40;96113.78;5025572;28;20056;-49
2021/11/26 07:41:51;;;;;;;31.70;16.65;;;;;;;0.40;79.73;96111.28;5025264;28;20045;-54
2021/11/26 07:44:17;;;;;;;34.50;16.58;;;;;;;0.38;80.21;96109.66;5025416;28;20041;-53
2021/11/26 07:46:44;;;;;;;33.33;17.60;;;;;;;0.28;81.32;96109.34;5021740;28;20812;-55
2021/11/26 07:49:10;;;;;;;55.33;25.70;;;;;;;0.21;80.66;96109.38;5024711;28;20110;-56
2021/11/26 07:51:37;;;;;;;31.23;15.40;;;;;;;0.28;80.66;96101.34;5024543;28;20056;-56
2021/11/26 07:54:03;;;;;;;33.13;15.88;;;;;;;0.36;80.68;96098.41;5026253;28;20512;-56
2021/11/26 07:56:30;;;;;;;38.35;18.92;;;;;;;0.40;80.77;96090.78;5026887;28;20519;-56
2021/11/26 07:58:56;;;;;;;40.67;19.65;;;;;;;0.40;80.89;96082.00;5025895;28;20041;-56
2021/11/26 08:01:23;;;;;;;38.70;19.40;;;;;;;0.46;80.90;96081.13;5019186;28;20050;-54
2021/11/26 08:03:49;;;;;;;68.60;28.10;;;;;;;0.55;81.36;96087.78;5015598;28;20120;-46
2021/11/26 08:06:16;;;;;;;82.57;36.72;;;;;;;0.56;80.13;96085.94;5010194;28;20428;-47
2021/11/26 08:08:42;;;;;;;57.47;26.13;;;;;;;0.56;81.04;96078.78;5023938;28;20045;-50
2021/11/26 08:11:09;;;;;;;37.25;18.38;;;;;;;0.59;80.26;96066.88;5023799;28;20052;-49
2021/11/26 08:13:36;;;;;;;78.40;38.30;;;;;;;0.52;80.08;96069.59;5024739;28;20494;-48
2021/11/26 08:16:03;;;;;;;34.95;16.23;;;;;;;0.56;80.67;96075.28;5019759;28;20053;-52
2021/11/26 08:18:31;;;;;;;43.33;22.67;;;;;;;0.51;81.32;96076.75;5024087;28;20033;-51
2021/11/26 08:20:58;;;;;;;36.58;17.52;;;;;;;0.55;80.19;96069.13;5019736;28;20042;-52
2021/11/26 08:23:29;;;;;;;33.95;16.42;;;;;;;0.50;80.02;96067.16;5024972;28;20393;-53
2021/11/26 08:25:59;;;;;;;33.03;15.63;;;;;;;0.52;79.75;96054.41;5024096;28;20536;-49
2021/11/26 08:28:27;;;;;;;31.95;15.35;;;;;;;0.64;79.58;96059.84;5024144;28;20052;-51
2021/11/26 08:30:55;;;;;;;29.02;14.35;;;;;;;0.70;79.08;96049.34;5021496;28;20667;-49
2021/11/26 08:33:24;;;;;;;31.95;14.10;;;;;;;0.78;79.16;96041.06;5015747;28;20103;-51
2021/11/26 08:35:52;;;;;;;29.73;14.13;;;;;;;0.89;77.94;96036.81;5020181;28;20072;-50
2021/11/26 08:38:18;;;;;;;29.20;13.77;;;;;;;0.89;77.84;96026.97;5015222;28;20037;-50
2021/11/26 08:40:45;;;;;;;30.08;14.55;;;;;;;0.96;78.00;96023.41;5010410;28;20061;-48
2021/11/26 08:43:12;;;;;;;30.10;13.50;;;;;;;1.03;77.74;96005.47;5024435;28;20856;-49
2021/11/26 08:45:39;;;;;;;31.40;14.80;;;;;;;1.02;78.82;96014.50;5034708;28;20595;-51
2021/11/26 08:48:06;;;;;;;31.98;15.32;;;;;;;0.99;77.70;96005.13;5035803;28;20444;-49
2021/11/26 08:50:36;;;;;;;59.38;24.30;;;;;;;1.07;78.09;96011.97;5023938;28;20038;-50
2021/11/26 08:53:05;;;;;;;32.33;15.30;;;;;;;1.14;77.52;96002.06;5025022;28;20045;-50
2021/11/26 08:55:37;;;;;;;100.95;43.42;;;;;;;1.10;77.75;95995.53;5034254;28;20049;-50
2021/11/26 08:58:04;;;;;;;29.50;14.02;;;;;;;1.27;75.91;95995.75;5024063;28;20041;-47
2021/11/26 09:00:33;;;;;;;72.15;31.52;;;;;;;1.28;76.31;95994.69;5023856;28;20042;-48
2021/11/26 09:03:03;;;;;;;56.47;27.35;;;;;;;1.26;77.03;95999.44;5023840;28;20087;-50
2021/11/26 09:05:30;;;;;;;38.65;18.77;;;;;;;1.27;76.53;96000.25;5019623;28;20096;-54
2021/11/26 09:08:00;;;;;;;32.53;13.98;;;;;;;1.48;75.83;96011.47;5017083;28;20049;-52
2021/11/26 09:10:29;;;;;;;27.42;12.98;;;;;;;1.61;74.65;96010.44;5015095;28;20053;-50
2021/11/26 09:12:55;;;;;;;24.63;12.50;;;;;;;1.56;75.30;96005.78;5024228;28;20045;-51
2021/11/26 09:15:23;;;;;;;29.02;13.65;;;;;;;1.66;75.54;96003.38;5015141;28;20037;-49
2021/11/26 09:17:50;;;;;;;26.85;11.75;;;;;;;1.77;74.51;96009.78;5017579;28;20048;-48
2021/11/26 09:20:17;;;;;;;29.90;14.50;;;;;;;1.81;74.81;96010.16;5023540;28;20052;-54
2021/11/26 09:22:44;;;;;;;24.20;14.55;;;;;;;1.77;75.00;95998.31;5014851;28;20580;-52
2021/11/26 09:25:11;;;;;;;36.30;18.80;;;;;;;1.72;75.52;96011.50;5022697;28;20056;-50
2021/11/26 09:27:38;;;;;;;32.35;16.33;;;;;;;1.83;75.85;96001.91;5022682;28;20067;-50
2021/11/26 09:30:07;;;;;;;28.13;15.80;;;;;;;1.80;75.13;95995.16;5020323;28;20128;-51
2021/11/26 09:32:34;;;;;;;39.88;17.88;;;;;;;1.93;74.90;95992.28;5022752;28;20037;-49
2021/11/26 09:35:01;;;;;;;31.40;13.60;;;;;;;1.94;74.60;95988.56;5023660;28;20045;-47
2021/11/26 09:37:27;;;;;;;24.75;12.30;;;;;;;1.84;74.68;95987.53;5023334;28;20436;-53
2021/11/26 09:39:54;;;;;;;29.48;15.27;;;;;;;1.67;75.54;95994.31;5023666;28;20049;-52
2021/11/26 09:42:21;;;;;;;28.52;13.15;;;;;;;1.65;75.73;95990.25;5023944;28;20459;-47
2021/11/26 09:44:49;;;;;;;22.95;11.55;;;;;;;1.72;75.44;95979.47;5023206;28;20050;-47
2021/11/26 09:47:15;;;;;;;26.15;13.63;;;;;;;1.81;74.96;95986.91;5023700;28;20045;-51
2021/11/26 09:49:43;;;;;;;30.05;12.25;;;;;;;1.78;75.37;95984.72;5023096;28;20041;-51
2021/11/26 09:52:10;;;;;;;35.58;16.80;;;;;;;1.64;75.96;95984.13;5023016;28;20053;-48
2021/11/26 09:54:43;;;;;;;38.15;19.45;;;;;;;1.59;76.15;95983.19;5025105;28;20056;-51
2021/11/26 09:57:09;;;;;;;26.90;13.35;;;;;;;1.54;75.95;95987.34;5014455;28;20096;-50
2021/11/26 09:59:42;;;;;;;28.45;14.85;;;;;;;1.59;76.19;95968.00;5027560;28;20132;-47
2021/11/26 10:02:11;;;;;;;;;;;;;;;1.63;76.90;95958.50;5027735;28;20107;-49
2021/11/26 10:04:37;;;;;;;47.58;22.85;;;;;;;1.73;76.30;95949.91;5027098;28;20376;-50
2021/11/26 10:07:05;;;;;;;29.77;16.50;;;;;;;1.69;76.59;95946.88;5027607;28;20602;-52
2021/11/26 10:09:35;;;;;;;35.17;17.00;;;;;;;1.71;77.21;95932.50;5027056;28;20084;-52
2021/11/26 10:12:14;;;;;;;34.08;16.02;;;;;;;1.78;76.03;95935.88;5026234;28;20053;-50
2021/11/26 10:14:44;;;;;;;33.13;14.95;;;;;;;1.79;75.47;95924.97;5025055;28;20049;-48
2021/11/26 10:17:22;;;;;;;29.45;13.15;;;;;;;1.76;75.86;95925.44;5026441;28;20103;-50
2021/11/26 10:19:51;;;;;;;30.33;13.98;;;;;;;1.67;76.59;95913.47;5025263;28;20095;-51
2021/11/26 10:22:22;;;;;;;25.92;12.95;;;;;;;1.74;76.33;95908.84;5025983;28;20103;-50
2021/11/26 10:25:17;;;;;;;34.22;19.65;;;;;;;1.66;77.20;95907.31;5026339;28;20111;-49
2021/11/26 10:27:57;;;;;;;35.42;16.17;;;;;;;1.66;77.24;95901.19;5014231;28;20111;-47
2021/11/26 10:30:28;;;;;;;29.35;14.23;;;;;;;1.69;76.75;95898.84;5026987;28;20678;-50
2021/11/26 10:32:59;;;;;;;29.13;13.05;;;;;;;1.76;76.97;95900.59;5027127;28;20079;-47
2021/11/26 10:35:28;;;;;;;30.02;15.25;;;;;;;1.80;76.87;95891.91;5026311;28;20049;-47
2021/11/26 10:38:07;;;;;;;23.55;11.85;;;;;;;1.80;77.10;95885.72;5019330;28;20037;-48
2021/11/26 10:40:38;;;;;;;33.42;16.98;;;;;;;1.72;77.11;95886.91;5022663;28;20128;-51
2021/11/26 10:43:12;;;;;;;29.17;13.57;;;;;;;1.89;76.90;95884.34;5027816;28;20511;-49
2021/11/26 10:45:55;;;;;;;26.88;12.98;;;;;;;1.83;77.48;95881.81;5027911;28;20045;-49
2021/11/26 10:56:58;;;;;;;23.17;11.13;;;;;;;2.13;74.87;95864.84;5026322;28;20042;-51
2021/11/26 10:59:29;;;;;;;25.35;11.27;;;;;;;1.79;76.30;95858.25;5026003;28;20497;-48
2021/11/26 11:01:57;;;;;;;28.67;13.18;;;;;;;1.81;76.85;95850.00;5025451;28;20528;-50
2021/11/26 11:04:25;;;;;;;24.20;12.38;;;;;;;1.89;76.30;95847.00;5027791;28;20048;-47
2021/11/26 11:07:02;;;;;;;23.52;11.55;;;;;;;2.07;76.04;95835.31;5021364;28;20096;-50
2021/11/26 11:09:50;;;;;;;30.52;14.35;;;;;;;2.01;75.45;95835.47;5026297;28;20791;-52
2021/11/26 11:12:17;;;;;;;24.92;11.68;;;;;;;2.00;76.27;95839.19;5025292;28;20080;-48
2021/11/26 11:14:55;;;;;;;26.38;11.27;;;;;;;2.28;75.00;95827.72;5023765;28;20455;-53
2021/11/26 11:17:24;;;;;;;23.40;11.38;;;;;;;2.41;74.72;95828.50;5015319;28;20042;-50
2021/11/26 11:19:55;;;;;;;32.72;14.52;;;;;;;2.50;74.84;95828.97;5023729;28;20052;-53
2021/11/26 11:22:21;;;;;;;20.08;10.30;;;;;;;2.37;74.39;95819.34;5025381;28;20049;-53
2021/11/26 11:24:48;;;;;;;29.30;14.10;;;;;;;2.32;75.18;95822.75;5023119;28;20508;-49
2021/11/26 11:27:15;;;;;;;27.52;12.65;;;;;;;2.32;75.08;95817.41;5025654;28;20050;-48
2021/11/26 11:29:42;;;;;;;21.55;11.15;;;;;;;2.50;74.50;95816.38;5025414;28;20084;-49
2021/11/26 11:32:10;;;;;;;23.83;10.50;;;;;;;2.72;74.13;95816.53;5025402;28;20049;-49